createdAt,value
2019-01-18T00:02:18.501Z,41.80
2019-01-18T00:04:56.486Z,32.05
2019-01-18T00:07:26.837Z,34.17
2019-01-18T00:09:57.485Z,26.60
2019-01-18T00:12:31.039Z,32.93
2019-01-18T00:17:41.770Z,28.97
2019-01-18T00:20:12.192Z,35.27
2019-01-18T00:22:46.198Z,28.83
2019-01-18T00:25:17.253Z,34.97
2019-01-18T00:27:47.563Z,26.23
2019-01-18T00:30:24.407Z,28.20
2019-01-18T00:32:51.645Z,27.90
2019-01-18T00:35:22.218Z,22.10
2019-01-18T00:37:53.905Z,23.43
2019-01-18T00:40:24.919Z,27.27
2019-01-18T00:42:55.236Z,27.37
2019-01-18T00:45:32.216Z,17.50
2019-01-18T00:47:57.559Z,16.37
2019-01-18T00:50:30.482Z,25.08
2019-01-18T00:53:00.763Z,24.57
2019-01-18T00:55:31.396Z,22.13
2019-01-18T00:58:02.085Z,21.25
2019-01-18T01:00:33.034Z,25.75
2019-01-18T01:03:04.951Z,26.23
2019-01-18T01:05:38.667Z,23.75
2019-01-18T01:08:08.946Z,22.03
2019-01-18T01:10:39.674Z,23.90
2019-01-18T01:13:10.075Z,19.53
2019-01-18T01:15:41.445Z,26.75
2019-01-18T01:18:14.945Z,19.97
2019-01-18T01:20:46.692Z,28.70
2019-01-18T01:23:17.146Z,32.37
2019-01-18T01:25:51.706Z,20.25
2019-01-18T01:28:23.268Z,23.07
2019-01-18T01:30:54.981Z,25.75
2019-01-18T01:33:25.334Z,29.73
2019-01-18T01:35:57.296Z,35.17
2019-01-18T01:38:27.750Z,29.93
2019-01-18T01:40:59.363Z,30.12
2019-01-18T01:43:29.722Z,33.37
2019-01-18T01:46:00.034Z,31.97
2019-01-18T01:48:30.336Z,28.43
2019-01-18T01:51:00.665Z,30.33
2019-01-18T01:53:32.897Z,24.23
2019-01-18T01:56:03.265Z,26.43
2019-01-18T01:58:33.867Z,26.23
2019-01-18T02:01:04.519Z,25.13
2019-01-18T02:03:37.034Z,28.60
2019-01-18T02:06:07.394Z,23.97
2019-01-18T02:08:38.041Z,23.57
2019-01-18T02:11:09.956Z,24.00
2019-01-18T02:13:41.931Z,29.72
2019-01-18T02:16:12.398Z,24.80
2019-01-18T02:18:50.933Z,26.20
2019-01-18T02:21:21.280Z,23.60
2019-01-18T02:23:51.845Z,24.10
2019-01-18T02:26:24.484Z,15.80
2019-01-18T02:28:56.312Z,19.76
2019-01-18T02:31:26.667Z,25.03
2019-01-18T02:33:56.987Z,28.40
2019-01-18T02:36:27.387Z,22.67
2019-01-18T02:38:59.177Z,25.62
2019-01-18T02:41:29.536Z,27.30
2019-01-18T02:44:01.009Z,23.83
2019-01-18T02:46:31.362Z,26.60
2019-01-18T02:49:03.022Z,23.83
2019-01-18T02:51:33.347Z,18.90
2019-01-18T02:54:04.421Z,39.25
2019-01-18T02:56:34.831Z,23.43
2019-01-18T02:59:07.805Z,20.52
2019-01-18T03:01:39.351Z,22.33
2019-01-18T03:04:14.821Z,22.00
2019-01-18T03:06:45.404Z,20.33
2019-01-18T03:09:15.812Z,17.77
2019-01-18T03:11:46.210Z,22.53
2019-01-18T03:14:16.636Z,19.63
2019-01-18T03:16:47.319Z,17.82
2019-01-18T03:19:17.601Z,30.73
2019-01-18T03:21:47.917Z,26.90
2019-01-18T03:24:20.886Z,20.70
2019-01-18T03:26:51.547Z,17.17
2019-01-18T03:29:21.867Z,20.00
2019-01-18T03:31:55.347Z,17.33
2019-01-18T03:34:26.803Z,20.03
2019-01-18T03:36:57.158Z,29.07
2019-01-18T03:39:27.542Z,24.73
2019-01-18T03:41:58.365Z,27.13
2019-01-18T03:44:28.812Z,31.03
2019-01-18T03:47:05.984Z,25.32
2019-01-18T03:49:36.567Z,22.90
2019-01-18T03:52:07.177Z,18.02
2019-01-18T03:54:37.749Z,18.40
2019-01-18T03:57:10.272Z,18.17
2019-01-18T03:59:40.548Z,20.23
2019-01-18T04:02:16.419Z,18.46
2019-01-18T04:04:46.807Z,23.10
2019-01-18T04:07:19.325Z,20.40
2019-01-18T04:09:52.080Z,15.03
2019-01-18T04:12:22.372Z,18.20
2019-01-18T04:14:53.244Z,19.32
2019-01-18T04:17:27.449Z,12.20
2019-01-18T04:19:57.850Z,11.57
2019-01-18T04:22:30.092Z,14.60
2019-01-18T04:25:14.502Z,9.87
2019-01-18T04:27:47.654Z,12.18
2019-01-18T04:30:21.258Z,8.13
2019-01-18T04:32:51.729Z,7.90
2019-01-18T04:35:25.731Z,12.67
2019-01-18T04:37:56.333Z,11.30
2019-01-18T04:40:27.625Z,14.43
2019-01-18T04:43:00.693Z,16.15
2019-01-18T04:45:31.026Z,14.13
2019-01-18T04:48:01.643Z,18.27
2019-01-18T04:50:38.673Z,14.07
2019-01-18T04:53:08.957Z,13.00
2019-01-18T04:55:39.279Z,12.00
2019-01-18T04:58:26.580Z,15.27
2019-01-18T05:00:44.316Z,13.70
2019-01-18T05:03:15.026Z,15.85
2019-01-18T05:05:51.878Z,9.10
2019-01-18T05:08:21.051Z,12.63
2019-01-18T05:10:51.352Z,18.67
2019-01-18T05:13:29.244Z,29.80
2019-01-18T05:16:00.621Z,23.70
2019-01-18T05:18:32.882Z,35.32
2019-01-18T05:21:03.298Z,37.87
2019-01-18T05:23:36.137Z,27.90
2019-01-18T05:26:06.821Z,27.50
2019-01-18T05:28:37.578Z,22.03
2019-01-18T05:31:07.845Z,19.93
2019-01-18T05:33:38.419Z,23.97
2019-01-18T05:36:08.792Z,26.50
2019-01-18T05:38:39.250Z,32.62
2019-01-18T05:41:16.240Z,39.40
2019-01-18T05:43:52.071Z,29.82
2019-01-18T05:46:22.383Z,25.80
2019-01-18T05:48:54.888Z,25.47
2019-01-18T05:51:25.240Z,29.27
2019-01-18T05:53:55.783Z,29.47
2019-01-18T05:56:26.364Z,23.90
2019-01-18T05:58:58.313Z,16.75
2019-01-18T06:01:28.856Z,15.00
2019-01-18T06:04:03.265Z,10.94
2019-01-18T06:06:33.989Z,17.70
2019-01-18T06:09:06.788Z,16.00
2019-01-18T06:11:37.130Z,18.40
2019-01-18T06:14:08.484Z,15.68
2019-01-18T06:16:43.523Z,15.00
2019-01-18T06:19:15.688Z,15.83
2019-01-18T06:21:46.405Z,12.60
2019-01-18T06:24:20.878Z,16.25
2019-01-18T06:26:51.557Z,16.52
2019-01-18T06:29:22.488Z,15.28
2019-01-18T06:31:55.432Z,13.47
2019-01-18T06:34:27.106Z,34.83
2019-01-18T06:36:57.705Z,30.73
2019-01-18T06:39:36.608Z,33.60
2019-01-18T06:42:06.946Z,29.13
2019-01-18T06:44:37.258Z,31.97
2019-01-18T06:47:13.360Z,38.07
2019-01-18T06:49:44.025Z,44.10
2019-01-18T06:52:14.335Z,31.57
2019-01-18T06:54:51.278Z,36.77
2019-01-18T06:57:21.955Z,34.63
2019-01-18T06:59:52.559Z,41.23
2019-01-18T07:02:22.991Z,38.83
2019-01-18T07:04:54.857Z,39.55
2019-01-18T07:07:25.317Z,40.93
2019-01-18T07:09:59.426Z,37.77
2019-01-18T07:12:30.049Z,45.53
2019-01-18T07:15:01.145Z,51.35
2019-01-18T07:17:37.276Z,47.83
2019-01-18T07:20:11.571Z,42.16
2019-01-18T07:22:42.102Z,42.87
2019-01-18T07:25:16.650Z,30.00
2019-01-18T07:27:46.956Z,40.33
2019-01-18T07:30:22.970Z,50.85
2019-01-18T07:32:58.027Z,44.67
2019-01-18T07:35:28.478Z,34.77
2019-01-18T07:37:59.045Z,32.77
2019-01-18T07:40:37.559Z,34.78
2019-01-18T07:43:08.039Z,47.90
2019-01-18T07:45:38.614Z,37.55
2019-01-18T07:48:08.974Z,44.27
2019-01-18T07:50:39.582Z,33.90
2019-01-18T07:53:11.626Z,28.97
2019-01-18T07:55:42.321Z,34.20
2019-01-18T07:58:12.708Z,40.03
2019-01-18T08:00:43.281Z,49.53
2019-01-18T08:03:13.601Z,46.93
2019-01-18T08:05:44.105Z,58.73
2019-01-18T08:08:14.403Z,61.87
2019-01-18T08:10:45.370Z,54.70
2019-01-18T08:13:18.480Z,63.80
2019-01-18T08:15:48.804Z,51.23
2019-01-18T08:18:19.246Z,41.70
2019-01-18T08:20:55.834Z,62.50
2019-01-18T08:23:26.634Z,65.30
2019-01-18T08:25:57.774Z,63.02
2019-01-18T08:28:31.660Z,70.27
2019-01-18T08:31:03.211Z,75.37
2019-01-18T08:33:33.512Z,74.97
2019-01-18T08:36:09.107Z,80.60
2019-01-18T08:38:39.443Z,80.90
2019-01-18T08:41:12.475Z,98.60
2019-01-18T08:43:42.771Z,83.07
2019-01-18T08:46:15.670Z,64.47
2019-01-18T08:48:46.099Z,76.93
2019-01-18T08:51:18.682Z,79.55
2019-01-18T08:53:49.304Z,85.00
2019-01-18T08:56:20.644Z,91.55
2019-01-18T08:58:51.365Z,79.17
2019-01-18T09:01:22.068Z,83.00
2019-01-18T09:03:54.198Z,70.30
2019-01-18T09:06:24.792Z,54.43
2019-01-18T09:08:55.189Z,47.67
2019-01-18T09:11:27.259Z,44.47
2019-01-18T09:13:59.871Z,38.17
2019-01-18T09:16:30.055Z,47.38
2019-01-18T09:19:01.689Z,48.83
2019-01-18T09:21:32.028Z,36.13
2019-01-18T09:24:03.278Z,45.83
2019-01-18T09:26:39.665Z,45.13
2019-01-18T09:29:10.336Z,49.65
2019-01-18T09:31:42.648Z,48.23
2019-01-18T09:34:19.900Z,42.50
2019-01-18T09:36:50.278Z,47.13
2019-01-18T09:39:21.100Z,40.92
2019-01-18T09:41:51.471Z,48.70
2019-01-18T09:44:22.008Z,46.07
2019-01-18T09:46:52.308Z,45.10
2019-01-18T09:49:27.541Z,41.88
2019-01-18T09:51:59.417Z,41.37
2019-01-18T09:54:29.904Z,41.98
2019-01-18T09:57:13.864Z,39.80
2019-01-18T09:59:36.923Z,45.28
2019-01-18T10:02:07.356Z,45.43
2019-01-18T10:04:38.777Z,45.78
2019-01-18T10:07:09.083Z,46.17
2019-01-18T10:09:40.521Z,42.15
2019-01-18T10:12:10.842Z,43.53
2019-01-18T10:14:41.160Z,48.20
2019-01-18T10:17:11.970Z,48.13
2019-01-18T10:19:42.503Z,42.23
2019-01-18T10:22:12.969Z,47.37
2019-01-18T10:24:45.768Z,38.28
2019-01-18T10:27:16.473Z,47.13
2019-01-18T10:29:54.467Z,47.67
2019-01-18T10:32:24.865Z,48.53
2019-01-18T10:34:55.506Z,50.57
2019-01-18T10:37:30.846Z,46.00
2019-01-18T10:39:59.965Z,44.70
2019-01-18T10:42:30.707Z,45.50
2019-01-18T10:45:02.514Z,49.70
2019-01-18T10:47:34.197Z,45.90
2019-01-18T10:50:06.191Z,36.17
2019-01-18T10:52:39.880Z,39.13
2019-01-18T10:55:11.693Z,45.88
2019-01-18T10:57:42.037Z,42.33
2019-01-18T11:00:33.021Z,41.00
2019-01-18T11:03:18.002Z,46.13
2019-01-18T11:05:39.094Z,40.60
2019-01-18T11:08:09.419Z,51.50
2019-01-18T11:10:47.865Z,48.40
2019-01-18T11:13:20.584Z,54.17
2019-01-18T11:15:51.068Z,53.50
2019-01-18T11:18:40.791Z,45.60
2019-01-18T11:21:27.282Z,43.40
2019-01-18T11:23:57.643Z,48.40
2019-01-18T11:26:28.139Z,44.07
2019-01-18T11:29:20.651Z,43.58
2019-01-18T11:31:39.468Z,49.23
2019-01-18T11:34:09.916Z,56.70
2019-01-18T11:36:50.776Z,41.13
2019-01-18T11:39:24.293Z,49.23
2019-01-18T11:41:56.565Z,46.46
2019-01-18T11:44:27.176Z,51.43
2019-01-18T11:47:16.631Z,47.64
2019-01-18T11:50:05.096Z,50.77
2019-01-18T11:52:35.592Z,44.90
2019-01-18T11:55:06.642Z,45.73
2019-01-18T11:57:36.978Z,54.63
2019-01-18T12:00:15.266Z,47.50
2019-01-18T12:02:45.568Z,48.90
2019-01-18T12:05:17.753Z,51.28
2019-01-18T12:07:48.638Z,55.43
2019-01-18T12:10:21.451Z,56.22
2019-01-18T12:12:57.234Z,47.23
2019-01-18T12:15:28.573Z,51.25
2019-01-18T12:17:59.188Z,58.80
2019-01-18T12:20:41.337Z,56.00
2019-01-18T12:23:11.925Z,58.43
2019-01-18T12:25:42.647Z,58.33
2019-01-18T12:28:23.717Z,52.83
2019-01-18T12:30:54.101Z,54.08
2019-01-18T12:33:24.614Z,54.50
2019-01-18T12:35:55.292Z,58.00
2019-01-18T12:38:25.806Z,56.57
2019-01-18T12:41:14.274Z,56.00
2019-01-18T12:43:35.650Z,58.47
2019-01-18T12:46:06.052Z,54.83
2019-01-18T12:48:36.528Z,53.13
2019-01-18T12:51:06.928Z,53.80
2019-01-18T12:53:56.331Z,54.47
2019-01-18T12:56:44.412Z,59.50
2019-01-18T12:59:15.019Z,57.57
2019-01-18T13:01:45.513Z,55.80
2019-01-18T13:04:16.216Z,53.87
2019-01-18T13:06:48.238Z,57.10
2019-01-18T13:09:18.965Z,54.93
2019-01-18T13:11:49.364Z,57.67
2019-01-18T13:14:20.185Z,55.36
2019-01-18T13:16:50.597Z,57.37
2019-01-18T13:19:26.048Z,49.90
2019-01-18T13:21:56.409Z,54.93
2019-01-18T13:24:27.217Z,57.80
2019-01-18T13:26:57.592Z,53.47
2019-01-18T13:29:28.231Z,52.30
2019-01-18T13:32:00.593Z,44.47
2019-01-18T13:34:32.186Z,49.15
2019-01-18T13:37:02.798Z,45.47
2019-01-18T13:39:38.267Z,52.40
2019-01-18T13:42:08.955Z,46.90
2019-01-18T13:44:43.745Z,46.33
2019-01-18T13:47:18.201Z,46.43
2019-01-18T13:49:47.134Z,40.35
2019-01-18T13:52:17.862Z,38.00
2019-01-18T13:54:48.648Z,46.27
2019-01-18T13:57:19.112Z,42.00
2019-01-18T13:59:49.763Z,43.43
2019-01-18T14:02:20.088Z,41.77
2019-01-18T14:04:55.407Z,44.17
2019-01-18T14:07:26.099Z,44.97
2019-01-18T14:10:02.296Z,50.10
2019-01-18T14:12:33.129Z,47.67
2019-01-18T14:15:05.595Z,49.40
2019-01-18T14:17:37.206Z,47.48
2019-01-18T14:20:13.031Z,47.47
2019-01-18T14:22:43.703Z,46.60
2019-01-18T14:25:22.402Z,46.10
2019-01-18T14:27:51.335Z,52.80
2019-01-18T14:30:24.870Z,57.73
2019-01-18T14:32:59.096Z,52.97
2019-01-18T14:35:29.533Z,61.28
2019-01-18T14:38:00.043Z,60.17
2019-01-18T14:40:33.897Z,68.98
2019-01-18T14:43:06.011Z,58.73
2019-01-18T14:45:41.013Z,65.92
2019-01-18T14:48:11.604Z,61.27
2019-01-18T14:50:43.454Z,55.75
2019-01-18T14:53:13.900Z,55.70
2019-01-18T14:55:49.823Z,60.48
2019-01-18T14:58:24.645Z,55.37
2019-01-18T15:00:54.686Z,53.90
2019-01-18T15:03:44.220Z,58.27
2019-01-18T15:06:17.154Z,57.67
2019-01-18T15:08:50.950Z,54.30
2019-01-18T15:11:21.312Z,54.03
2019-01-18T15:13:51.703Z,54.50
2019-01-18T15:16:22.167Z,63.53
2019-01-18T15:18:52.469Z,65.00
2019-01-18T15:21:30.686Z,64.92
2019-01-18T15:23:57.060Z,60.53
2019-01-18T15:26:27.384Z,56.33
2019-01-18T15:28:57.759Z,51.17
2019-01-18T15:31:28.126Z,45.03
2019-01-18T15:34:03.175Z,58.33
2019-01-18T15:36:33.543Z,67.10
2019-01-18T15:39:11.190Z,58.75
2019-01-18T15:41:45.240Z,50.90
2019-01-18T15:44:15.642Z,54.90
2019-01-18T15:46:46.265Z,56.63
2019-01-18T15:49:21.019Z,58.90
2019-01-18T15:51:51.364Z,63.37
2019-01-18T15:54:21.994Z,51.65
2019-01-18T15:57:04.295Z,48.90
2019-01-18T15:59:34.760Z,48.80
2019-01-18T16:02:07.333Z,45.05
2019-01-18T16:04:48.607Z,58.63
2019-01-18T16:07:19.165Z,51.27
2019-01-18T16:09:52.588Z,56.20
2019-01-18T16:12:23.134Z,54.93
2019-01-18T16:14:53.521Z,64.40
2019-01-18T16:17:36.015Z,62.00
2019-01-18T16:20:11.973Z,74.63
2019-01-18T16:22:42.655Z,61.20
2019-01-18T16:25:21.570Z,68.20
2019-01-18T16:27:51.939Z,80.55
2019-01-18T16:30:22.643Z,76.77
2019-01-18T16:32:53.778Z,87.33
2019-01-18T16:35:24.284Z,85.13
2019-01-18T16:37:54.851Z,77.65
2019-01-18T16:40:28.003Z,66.20
2019-01-18T16:43:17.124Z,74.07
2019-01-18T16:45:49.156Z,65.60
2019-01-18T16:48:19.454Z,54.10
2019-01-18T16:50:50.328Z,55.80
2019-01-18T16:53:21.016Z,59.63
2019-01-18T16:55:54.006Z,53.62
2019-01-18T16:58:24.402Z,56.47
2019-01-18T17:00:56.301Z,48.07
2019-01-18T17:03:30.561Z,44.83
2019-01-18T17:05:58.913Z,46.27
2019-01-18T17:08:29.366Z,44.23
2019-01-18T17:11:02.950Z,47.50
2019-01-18T17:13:38.189Z,50.83
2019-01-18T17:16:08.768Z,46.13
2019-01-18T17:18:40.986Z,43.40
2019-01-18T17:21:11.318Z,49.13
2019-01-18T17:23:41.950Z,41.43
2019-01-18T17:26:19.472Z,53.17
2019-01-18T17:28:50.158Z,51.58
2019-01-18T17:31:20.806Z,44.27
2019-01-18T17:33:51.460Z,39.08
2019-01-18T17:37:07.226Z,46.20
2019-01-18T17:40:11.272Z,47.05
2019-01-18T17:43:17.962Z,47.33
2019-01-18T17:46:04.905Z,49.15
2019-01-18T17:48:58.601Z,53.10
2019-01-18T17:51:57.752Z,46.73
2019-01-18T17:54:46.020Z,44.77
2019-01-18T17:57:40.530Z,55.10
2019-01-18T18:00:49.150Z,43.73
2019-01-18T18:04:15.909Z,48.87
2019-01-18T18:07:10.706Z,46.92
2019-01-18T18:10:31.424Z,43.97
2019-01-18T18:13:59.232Z,38.73
2019-01-18T18:16:56.753Z,43.27
2019-01-18T18:20:13.351Z,48.97
2019-01-18T18:23:07.323Z,40.37
2019-01-18T18:26:06.026Z,48.97
2019-01-18T18:29:03.567Z,47.20
2019-01-18T18:31:50.997Z,42.27
2019-01-18T18:35:13.682Z,38.50
2019-01-18T18:38:10.628Z,45.30
2019-01-18T18:41:27.899Z,40.87
2019-01-18T18:44:22.039Z,36.03
2019-01-18T18:47:02.305Z,39.73
2019-01-18T18:50:18.809Z,39.48
2019-01-18T18:53:17.557Z,35.60
2019-01-18T18:56:36.692Z,33.75
2019-01-18T18:59:55.452Z,35.83
2019-01-18T19:03:08.768Z,35.67
2019-01-18T19:06:32.252Z,35.37
2019-01-18T19:09:45.783Z,39.77
2019-01-18T19:12:41.772Z,36.63
2019-01-18T19:15:58.460Z,45.27
2019-01-18T19:19:11.569Z,36.60
2019-01-18T19:22:08.446Z,36.35
2019-01-18T19:25:42.089Z,40.97
2019-01-18T19:29:08.416Z,40.13
2019-01-18T19:32:14.321Z,37.47
2019-01-18T19:35:19.541Z,38.30
2019-01-18T19:38:22.611Z,37.37
2019-01-18T19:41:19.790Z,42.78
2019-01-18T19:44:39.349Z,45.78
2019-01-18T19:47:30.077Z,34.27
2019-01-18T19:50:43.879Z,32.80
2019-01-18T19:54:02.346Z,31.40
2019-01-18T19:56:49.997Z,32.40
2019-01-18T19:59:57.651Z,42.43
2019-01-18T20:02:41.124Z,35.68
2019-01-18T20:05:35.741Z,32.40
2019-01-18T20:08:59.494Z,39.63
2019-01-18T20:12:04.254Z,35.63
2019-01-18T20:14:47.571Z,33.93
2019-01-18T20:18:03.377Z,34.53
2019-01-18T20:21:37.681Z,38.23
2019-01-18T20:24:36.094Z,35.10
2019-01-18T20:27:38.103Z,36.23
2019-01-18T20:31:08.246Z,34.55
2019-01-18T20:34:30.679Z,30.40
2019-01-18T20:37:24.936Z,29.10
2019-01-18T20:40:49.302Z,31.40
2019-01-18T20:43:58.274Z,30.13
2019-01-18T20:47:16.841Z,31.87
2019-01-18T20:50:12.841Z,31.90
2019-01-18T20:53:12.267Z,31.20
2019-01-18T20:56:29.735Z,25.23
2019-01-18T20:59:14.416Z,29.77
2019-01-18T21:02:43.966Z,30.90
2019-01-18T21:05:53.561Z,30.83
2019-01-18T21:08:40.941Z,30.20
2019-01-18T21:11:26.494Z,35.10
2019-01-18T21:14:12.212Z,29.57
2019-01-18T21:17:09.100Z,31.33
2019-01-18T21:20:09.685Z,32.58
2019-01-18T21:23:33.714Z,27.07
2019-01-18T21:26:36.201Z,33.77
2019-01-18T21:29:52.416Z,32.33
2019-01-18T21:32:44.100Z,30.55
2019-01-18T21:36:06.855Z,30.63
2019-01-18T21:39:14.481Z,32.90
2019-01-18T21:42:29.460Z,33.27
2019-01-18T21:45:36.640Z,27.23
2019-01-18T21:49:12.939Z,30.25
2019-01-18T21:52:03.163Z,31.73
2019-01-18T21:54:57.413Z,29.23
2019-01-18T21:58:02.281Z,29.37
2019-01-18T22:01:03.657Z,31.57
2019-01-18T22:03:53.107Z,31.10
2019-01-18T22:06:59.167Z,30.83
2019-01-18T22:09:41.910Z,31.25
2019-01-18T22:12:39.463Z,31.27
2019-01-18T22:16:11.946Z,28.20
2019-01-18T22:19:28.616Z,30.50
2019-01-18T22:22:30.830Z,33.50
2019-01-18T22:25:43.375Z,31.64
2019-01-18T22:28:43.765Z,28.90
2019-01-18T22:31:47.041Z,28.67
2019-01-18T22:34:47.869Z,29.73
2019-01-18T22:38:02.527Z,31.23
2019-01-18T22:40:56.162Z,28.47
2019-01-18T22:43:41.299Z,35.63
2019-01-18T22:46:52.992Z,31.57
2019-01-18T22:49:47.559Z,28.13
2019-01-18T22:53:17.392Z,34.08
2019-01-18T22:56:10.840Z,33.33
2019-01-18T22:59:20.286Z,33.47
2019-01-18T23:02:26.421Z,34.80
2019-01-18T23:05:42.786Z,29.37
2019-01-18T23:08:48.630Z,34.83
2019-01-18T23:11:35.578Z,35.33
2019-01-18T23:14:20.161Z,31.33
2019-01-18T23:17:27.573Z,32.03
2019-01-18T23:20:33.410Z,31.43
2019-01-18T23:23:44.283Z,36.10
2019-01-18T23:27:07.227Z,28.67
2019-01-18T23:30:15.148Z,34.85
2019-01-18T23:33:34.253Z,28.00
2019-01-18T23:36:52.265Z,37.00
2019-01-18T23:40:08.493Z,30.63
2019-01-18T23:43:04.107Z,30.20
2019-01-18T23:46:20.118Z,31.87
2019-01-18T23:49:20.700Z,27.37
2019-01-18T23:52:30.131Z,26.47
2019-01-18T23:55:36.951Z,26.55
2019-01-18T23:58:33.611Z,26.35
